Time;durP1;ratioP1;P1;durP2;ratioP2;P2;SDS_P1;SDS_P2;PMS_P1;PMS_P2;Temp;Humidity;BMP_temperature;BMP_pressure;BME280_temperature;BME280_humidity;BME280_pressure;Samples;Min_cycle;Max_cycle;Signal;HPM_P1;HPM_P2
2022/03/24 00:00:59;;;;;;;49.38;36.88;;;17.50;57.90;;;;;;4000253;29;20057;-67
2022/03/24 00:03:22;;;;;;;51.58;36.08;;;17.50;58.00;;;;;;4001135;29;20153;-68
2022/03/24 00:05:47;;;;;;;44.55;34.40;;;17.50;58.00;;;;;;4001049;29;20114;-68
2022/03/24 00:08:09;;;;;;;48.58;35.95;;;17.50;58.10;;;;;;3987504;29;20066;-68
2022/03/24 00:10:32;;;;;;;50.80;37.08;;;17.50;58.10;;;;;;4000910;29;20042;-69
2022/03/24 00:12:55;;;;;;;54.20;37.70;;;17.50;58.10;;;;;;4000952;29;20050;-68
2022/03/24 00:15:19;;;;;;;52.03;38.45;;;17.50;58.20;;;;;;3972649;29;20442;-69
2022/03/24 00:17:41;;;;;;;49.65;36.47;;;17.40;58.20;;;;;;3985967;29;20480;-68
2022/03/24 00:20:05;;;;;;;50.95;37.20;;;17.40;58.30;;;;;;3986153;29;20497;-69
2022/03/24 00:22:27;;;;;;;50.10;35.10;;;17.40;58.20;;;;;;3985973;29;20798;-68
2022/03/24 00:24:49;;;;;;;53.25;37.08;;;17.40;58.30;;;;;;3972140;29;20099;-69
2022/03/24 00:27:11;;;;;;;50.10;37.47;;;17.40;58.30;;;;;;3999748;29;20049;-68
2022/03/24 00:29:33;;;;;;;50.78;36.08;;;17.40;58.30;;;;;;4000867;29;20462;-68
2022/03/24 00:31:58;;;;;;;47.08;35.13;;;17.40;58.30;;;;;;3987246;29;20166;-69
2022/03/24 00:34:21;;;;;;;46.67;34.63;;;17.40;58.40;;;;;;3987062;29;20131;-68
2022/03/24 00:36:43;;;;;;;48.10;34.88;;;17.40;58.40;;;;;;3987282;29;20493;-68
2022/03/24 00:39:06;;;;;;;50.80;34.65;;;17.40;58.40;;;;;;3987034;29;20050;-68
2022/03/24 00:41:29;;;;;;;49.50;35.42;;;17.40;58.50;;;;;;4000498;29;20133;-68
2022/03/24 00:43:51;;;;;;;45.42;33.90;;;17.30;58.50;;;;;;4000572;29;20425;-69
2022/03/24 00:46:13;;;;;;;48.10;36.35;;;17.30;58.60;;;;;;3986145;29;20081;-69
2022/03/24 00:48:37;;;;;;;48.05;35.05;;;17.30;58.70;;;;;;4000910;29;20062;-68
2022/03/24 00:50:59;;;;;;;48.47;36.42;;;17.30;58.70;;;;;;4001308;29;20385;-68
2022/03/24 00:53:21;;;;;;;47.08;35.28;;;17.30;58.70;;;;;;4001354;29;20138;-68
2022/03/24 00:55:43;;;;;;;51.13;37.40;;;17.30;58.70;;;;;;4003844;29;20119;-69
2022/03/24 00:58:06;;;;;;;51.35;36.65;;;17.30;58.80;;;;;;4003542;29;20102;-68
2022/03/24 01:00:28;;;;;;;45.58;33.83;;;17.30;58.90;;;;;;4003840;29;20704;-68
2022/03/24 01:02:52;;;;;;;46.40;34.80;;;17.20;58.90;;;;;;4003285;29;20440;-68
2022/03/24 01:05:17;;;;;;;47.35;35.20;;;17.20;58.90;;;;;;3982455;29;20070;-68
2022/03/24 01:07:39;;;;;;;46.97;35.13;;;17.20;59.00;;;;;;4003307;29;20054;-68
2022/03/24 01:10:01;;;;;;;43.58;33.53;;;17.20;59.00;;;;;;3989448;29;20425;-68
2022/03/24 01:12:24;;;;;;;44.70;34.50;;;17.20;59.00;;;;;;4003454;29;20045;-69
2022/03/24 01:14:46;;;;;;;50.28;34.38;;;17.20;59.00;;;;;;4003127;29;20061;-69
2022/03/24 01:17:10;;;;;;;46.13;34.72;;;17.20;59.00;;;;;;3989316;29;20066;-68
2022/03/24 01:19:33;;;;;;;45.15;33.20;;;17.20;59.10;;;;;;4003359;29;20057;-68
2022/03/24 01:21:56;;;;;;;46.13;33.92;;;17.20;59.10;;;;;;4003191;29;20180;-68
2022/03/24 01:24:18;;;;;;;45.00;33.75;;;17.10;59.10;;;;;;4002734;29;20057;-68
2022/03/24 01:26:40;;;;;;;42.05;32.20;;;17.10;59.10;;;;;;3976583;29;20152;-68
2022/03/24 01:29:03;;;;;;;39.20;30.42;;;17.10;59.20;;;;;;3989045;29;20120;-68
2022/03/24 01:31:25;;;;;;;51.00;36.13;;;17.10;59.20;;;;;;4003053;29;20052;-69
2022/03/24 01:33:48;;;;;;;53.22;37.50;;;17.10;59.20;;;;;;3988861;29;20046;-68
2022/03/24 01:36:11;;;;;;;50.40;37.05;;;17.10;59.30;;;;;;4003065;29;20113;-68
2022/03/24 01:38:34;;;;;;;46.15;33.50;;;17.10;59.40;;;;;;4003130;29;20548;-68
2022/03/24 01:40:58;;;;;;;47.38;35.53;;;17.10;59.30;;;;;;3989271;29;20131;-68
2022/03/24 01:43:20;;;;;;;43.72;32.72;;;17.00;59.30;;;;;;3988608;29;20058;-68
2022/03/24 01:45:42;;;;;;;46.25;33.42;;;17.00;59.30;;;;;;3989145;29;20054;-68
2022/03/24 01:48:06;;;;;;;45.50;32.67;;;17.00;59.30;;;;;;4003122;29;20519;-68
2022/03/24 01:50:28;;;;;;;46.15;32.70;;;17.10;59.40;;;;;;4002895;29;20477;-68
2022/03/24 01:52:51;;;;;;;47.80;33.53;;;17.00;59.50;;;;;;4002539;29;20053;-68
2022/03/24 01:55:15;;;;;;;46.70;34.28;;;17.00;59.50;;;;;;4002699;29;20093;-68
2022/03/24 01:57:38;;;;;;;46.25;31.42;;;17.00;59.50;;;;;;4002725;29;20065;-67
2022/03/24 02:00:00;;;;;;;41.35;31.13;;;17.00;59.50;;;;;;3988940;29;20050;-69
2022/03/24 02:02:23;;;;;;;38.72;28.85;;;17.00;59.50;;;;;;3988732;29;20081;-68
2022/03/24 02:04:47;;;;;;;40.85;30.63;;;17.00;59.60;;;;;;3987124;29;20060;-69
2022/03/24 02:07:14;;;;;;;39.40;28.25;;;17.00;59.50;;;;;;3986833;29;20138;-68
2022/03/24 02:09:37;;;;;;;39.15;30.27;;;17.00;59.50;;;;;;4001941;29;20132;-69
2022/03/24 02:12:01;;;;;;;46.20;32.67;;;17.00;59.50;;;;;;3988952;29;20088;-69
2022/03/24 02:14:23;;;;;;;44.55;32.38;;;17.00;59.50;;;;;;3988219;29;20530;-68
2022/03/24 02:16:49;;;;;;;45.60;32.65;;;17.00;59.50;;;;;;3988248;29;20053;-69
2022/03/24 02:19:12;;;;;;;42.35;31.17;;;16.90;59.40;;;;;;3986991;29;20445;-68
2022/03/24 02:21:34;;;;;;;44.15;31.48;;;17.00;60.30;;;;;;3988157;29;20066;-68
2022/03/24 02:23:59;;;;;;;39.47;30.55;;;17.00;59.50;;;;;;4001548;29;20088;-68
2022/03/24 02:26:21;;;;;;;42.50;32.10;;;17.00;59.50;;;;;;4002095;29;20732;-67
2022/03/24 02:28:45;;;;;;;42.55;31.30;;;17.00;59.50;;;;;;4002749;29;20053;-68
2022/03/24 02:31:09;;;;;;;39.33;28.77;;;16.90;59.40;;;;;;3987239;29;20066;-68
2022/03/24 02:33:32;;;;;;;30.20;23.50;;;16.90;59.40;;;;;;3987185;29;20050;-68
2022/03/24 02:35:53;;;;;;;36.53;25.98;;;16.90;59.50;;;;;;4000901;29;20062;-68
2022/03/24 02:38:15;;;;;;;35.67;25.70;;;16.90;59.40;;;;;;4002119;29;20066;-68
2022/03/24 02:40:39;;;;;;;38.25;26.88;;;16.90;59.40;;;;;;4001919;29;20053;-68
2022/03/24 02:43:01;;;;;;;38.50;28.00;;;16.90;59.40;;;;;;3986892;29;20153;-68
2022/03/24 02:45:24;;;;;;;44.55;30.38;;;16.90;59.50;;;;;;3986771;29;20066;-68
2022/03/24 02:47:46;;;;;;;42.60;30.02;;;16.90;59.50;;;;;;4000521;29;20053;-68
2022/03/24 02:50:10;;;;;;;37.80;29.60;;;16.80;59.50;;;;;;4002293;29;20045;-68
2022/03/24 02:52:32;;;;;;;40.63;30.48;;;16.80;59.50;;;;;;3987653;29;20088;-68
2022/03/24 02:54:55;;;;;;;40.00;27.83;;;16.80;59.50;;;;;;4002242;29;20057;-68
2022/03/24 02:57:19;;;;;;;43.53;28.88;;;16.80;59.50;;;;;;4001517;29;20054;-68
2022/03/24 02:59:41;;;;;;;43.25;31.13;;;16.80;59.50;;;;;;4002252;29;20056;-68
2022/03/24 03:02:07;;;;;;;44.17;32.55;;;16.80;59.60;;;;;;4002260;29;20086;-68
2022/03/24 03:04:31;;;;;;;40.95;30.40;;;16.80;59.60;;;;;;4001608;29;20052;-68
2022/03/24 03:06:54;;;;;;;43.72;31.27;;;16.80;59.60;;;;;;4001775;29;20114;-68
2022/03/24 03:09:18;;;;;;;43.33;31.23;;;16.80;59.70;;;;;;4001875;29;20076;-68
2022/03/24 03:11:42;;;;;;;43.17;31.17;;;16.80;59.60;;;;;;4001216;29;20505;-68
2022/03/24 03:14:05;;;;;;;39.80;29.73;;;16.70;59.70;;;;;;4001683;29;20046;-68
2022/03/24 03:16:28;;;;;;;42.25;30.10;;;16.70;59.60;;;;;;4001418;29;20129;-68
2022/03/24 03:18:50;;;;;;;39.97;29.83;;;16.70;59.60;;;;;;4001819;29;20057;-68
2022/03/24 03:21:13;;;;;;;41.13;30.88;;;16.70;59.80;;;;;;4001962;29;20046;-68
2022/03/24 03:23:37;;;;;;;41.63;29.95;;;16.70;59.80;;;;;;4001485;29;20501;-68
2022/03/24 03:25:59;;;;;;;40.13;29.17;;;16.70;59.80;;;;;;4000951;29;20054;-68
2022/03/24 03:28:22;;;;;;;30.98;24.27;;;16.70;60.70;;;;;;4001806;29;20425;-67
2022/03/24 03:30:45;;;;;;;32.45;25.90;;;16.70;59.90;;;;;;4001676;29;20434;-67
2022/03/24 03:33:07;;;;;;;33.13;25.15;;;16.70;59.90;;;;;;4001596;29;20095;-67
2022/03/24 03:35:30;;;;;;;29.83;22.50;;;16.60;59.90;;;;;;4001578;29;20053;-67
2022/03/24 03:37:52;;;;;;;20.20;16.13;;;16.70;60.10;;;;;;3986723;29;20055;-68
2022/03/24 03:40:14;;;;;;;22.80;18.13;;;16.60;60.00;;;;;;3986304;29;20050;-68
2022/03/24 03:42:36;;;;;;;20.77;17.25;;;16.60;60.00;;;;;;3999974;29;20077;-68
2022/03/24 03:44:58;;;;;;;19.67;16.67;;;16.60;60.00;;;;;;4001094;29;20046;-68
2022/03/24 03:47:22;;;;;;;25.52;20.35;;;16.60;60.00;;;;;;4000926;29;20045;-66
2022/03/24 03:49:44;;;;;;;30.23;21.90;;;16.60;60.00;;;;;;4001320;29;20053;-66
2022/03/24 03:52:25;;;;;;;29.10;21.20;;;16.60;60.10;;;;;;4000557;29;20125;-66
2022/03/24 03:54:47;;;;;;;24.08;20.33;;;16.60;60.30;;;;;;3999992;29;20517;-67
2022/03/24 03:57:10;;;;;;;21.98;17.95;;;16.50;60.20;;;;;;3999527;29;20050;-66
2022/03/24 03:59:32;;;;;;;17.17;14.85;;;16.50;60.10;;;;;;3986070;29;20133;-67
2022/03/24 04:01:57;;;;;;;15.93;14.25;;;16.50;60.20;;;;;;3971840;29;20058;-66
2022/03/24 04:04:21;;;;;;;15.43;13.82;;;16.50;60.10;;;;;;3985509;29;20099;-66
2022/03/24 04:06:43;;;;;;;15.40;13.68;;;16.50;60.10;;;;;;4007969;29;21022;-66
2022/03/24 04:09:05;;;;;;;18.45;16.08;;;16.50;60.20;;;;;;4001440;29;20064;-66
2022/03/24 04:11:27;;;;;;;19.98;16.75;;;16.40;60.10;;;;;;4001285;29;20118;-68
2022/03/24 04:13:49;;;;;;;23.90;17.23;;;16.50;60.20;;;;;;4000538;29;20056;-68
2022/03/24 04:16:13;;;;;;;23.90;19.15;;;16.50;60.20;;;;;;4001005;29;20053;-68
2022/03/24 04:18:35;;;;;;;19.88;16.52;;;16.40;60.10;;;;;;3986979;29;20053;-67
2022/03/24 04:20:59;;;;;;;21.58;18.40;;;16.40;60.30;;;;;;4001027;29;20450;-67
2022/03/24 04:23:21;;;;;;;25.42;20.90;;;16.40;60.30;;;;;;3988931;29;20123;-67
2022/03/24 04:25:43;;;;;;;22.55;18.88;;;16.40;60.30;;;;;;3986061;29;20074;-67
2022/03/24 04:28:07;;;;;;;23.63;19.60;;;16.40;60.40;;;;;;3986677;29;20573;-66
2022/03/24 04:30:29;;;;;;;28.30;21.13;;;16.40;60.40;;;;;;3989266;29;20054;-67
2022/03/24 04:32:51;;;;;;;25.50;21.13;;;16.40;60.40;;;;;;3989306;29;20065;-67
2022/03/24 04:35:14;;;;;;;26.67;21.67;;;16.30;60.40;;;;;;3988881;29;20058;-66
2022/03/24 04:37:39;;;;;;;33.30;24.90;;;16.40;60.30;;;;;;3989126;29;20433;-66
2022/03/24 04:40:01;;;;;;;31.48;23.85;;;16.30;60.30;;;;;;3989298;29;20071;-66
2022/03/24 04:42:23;;;;;;;36.25;26.15;;;16.30;60.40;;;;;;3989165;29;20186;-66
2022/03/24 04:44:45;;;;;;;34.80;26.20;;;16.30;60.40;;;;;;3989119;29;20061;-66
2022/03/24 04:47:07;;;;;;;36.83;26.63;;;16.30;61.30;;;;;;3988479;29;20517;-66
2022/03/24 04:49:29;;;;;;;32.67;25.77;;;16.30;60.30;;;;;;3989165;29;20106;-66
2022/03/24 04:51:51;;;;;;;33.55;24.92;;;16.30;60.50;;;;;;3987718;29;20490;-66
2022/03/24 04:54:15;;;;;;;32.45;24.48;;;16.30;60.50;;;;;;3989226;29;20773;-66
2022/03/24 04:56:36;;;;;;;36.05;26.67;;;16.30;60.60;;;;;;3988452;29;20392;-66
2022/03/24 04:58:59;;;;;;;28.88;22.33;;;16.30;60.60;;;;;;3988815;29;20412;-66
2022/03/24 05:01:21;;;;;;;26.83;21.45;;;16.20;60.50;;;;;;3988987;29;20849;-66
2022/03/24 05:03:46;;;;;;;36.65;26.20;;;16.20;60.50;;;;;;3976586;29;20065;-67
2022/03/24 05:06:08;;;;;;;34.80;26.45;;;16.20;60.60;;;;;;3988537;29;20111;-68
2022/03/24 05:08:31;;;;;;;33.35;25.08;;;16.20;60.60;;;;;;3988921;29;20055;-67
2022/03/24 05:10:55;;;;;;;31.20;25.30;;;16.20;60.60;;;;;;3989192;29;20065;-67
2022/03/24 05:13:18;;;;;;;30.83;24.15;;;16.20;60.70;;;;;;3983833;29;20051;-67
2022/03/24 05:15:40;;;;;;;33.55;25.77;;;16.20;60.70;;;;;;3988356;29;20133;-67
2022/03/24 05:18:03;;;;;;;34.03;25.15;;;16.20;60.60;;;;;;3988483;29;20436;-67
2022/03/24 05:20:26;;;;;;;34.50;25.45;;;16.20;60.70;;;;;;3973721;29;20130;-67
2022/03/24 05:22:48;;;;;;;32.65;24.50;;;16.20;60.70;;;;;;3975420;29;20058;-67
2022/03/24 05:25:10;;;;;;;36.97;25.75;;;16.20;60.80;;;;;;3991400;29;20133;-67
2022/03/24 05:27:34;;;;;;;36.38;25.50;;;16.20;60.80;;;;;;3988240;29;20054;-67
2022/03/24 05:29:56;;;;;;;37.47;26.73;;;16.10;60.70;;;;;;3988960;29;20042;-67
2022/03/24 05:32:18;;;;;;;31.98;24.13;;;16.10;60.70;;;;;;4003361;29;20054;-66
2022/03/24 05:34:40;;;;;;;27.95;22.50;;;16.10;60.70;;;;;;4003032;29;20062;-67
2022/03/24 05:37:03;;;;;;;25.65;20.63;;;16.10;61.00;;;;;;3987925;29;20065;-68
2022/03/24 05:39:25;;;;;;;27.88;21.33;;;16.10;61.10;;;;;;3987577;29;20106;-68
2022/03/24 05:41:46;;;;;;;30.55;21.60;;;16.10;60.80;;;;;;3987697;29;20077;-67
2022/03/24 05:44:10;;;;;;;28.05;20.60;;;16.10;60.90;;;;;;3987822;29;20070;-67
2022/03/24 05:46:42;;;;;;;30.23;20.65;;;16.10;61.00;;;;;;3972228;29;20558;-68
2022/03/24 05:49:06;;;;;;;24.95;19.48;;;16.10;61.20;;;;;;3992543;29;20129;-67
2022/03/24 05:51:52;;;;;;;26.58;20.10;;;16.10;61.20;;;;;;3988403;29;20141;-66
2022/03/24 05:54:16;;;;;;;27.83;21.60;;;16.10;62.10;;;;;;4002617;29;20050;-66
2022/03/24 05:56:39;;;;;;;31.52;23.08;;;16.00;61.10;;;;;;3987900;29;20061;-70
2022/03/24 05:59:01;;;;;;;30.45;21.92;;;16.00;61.30;;;;;;3987576;29;20520;-68
2022/03/24 06:01:25;;;;;;;31.10;23.55;;;16.10;61.20;;;;;;3986607;29;20652;-67
2022/03/24 06:03:51;;;;;;;32.78;23.65;;;16.10;61.30;;;;;;3994024;29;20141;-67
2022/03/24 06:06:13;;;;;;;29.13;21.65;;;16.10;61.20;;;;;;3988092;29;20189;-68
2022/03/24 06:08:36;;;;;;;29.50;22.42;;;16.10;61.20;;;;;;4002777;29;20052;-67
2022/03/24 06:10:58;;;;;;;28.85;22.67;;;16.10;62.10;;;;;;4001145;29;20505;-67
2022/03/24 06:13:20;;;;;;;42.78;27.25;;;16.10;61.30;;;;;;4001400;29;20053;-69
2022/03/24 06:15:43;;;;;;;41.55;26.70;;;16.10;61.40;;;;;;3991714;29;20053;-68
2022/03/24 06:18:06;;;;;;;39.55;27.15;;;16.00;61.10;;;;;;3973436;29;20125;-69
2022/03/24 06:20:28;;;;;;;36.03;25.50;;;16.00;61.10;;;;;;4001757;29;20038;-67
2022/03/24 06:22:51;;;;;;;38.13;27.23;;;16.00;60.90;;;;;;4002152;29;20498;-68
2022/03/24 06:25:14;;;;;;;36.97;24.48;;;16.00;60.90;;;;;;4002501;29;20053;-69
2022/03/24 06:27:36;;;;;;;36.05;24.80;;;16.00;61.20;;;;;;3987969;29;20053;-68
2022/03/24 06:29:58;;;;;;;31.13;23.95;;;16.00;61.10;;;;;;4001322;29;20453;-68
2022/03/24 06:32:20;;;;;;;30.70;24.05;;;16.00;61.10;;;;;;4002770;29;20520;-68
2022/03/24 06:34:47;;;;;;;38.13;25.35;;;15.90;61.10;;;;;;3989189;29;20070;-68
2022/03/24 06:37:09;;;;;;;38.85;26.10;;;15.90;61.20;;;;;;4002303;29;20049;-67
2022/03/24 06:39:31;;;;;;;41.78;26.70;;;15.90;61.30;;;;;;4002041;29;20062;-67
2022/03/24 06:41:55;;;;;;;41.15;26.83;;;15.90;61.40;;;;;;4001913;29;20054;-68
2022/03/24 06:44:17;;;;;;;36.63;27.15;;;15.90;61.60;;;;;;4001799;29;20050;-68
2022/03/24 06:46:39;;;;;;;39.42;28.80;;;15.90;61.70;;;;;;4001840;29;20160;-67
2022/03/24 06:49:03;;;;;;;37.88;27.50;;;15.90;61.50;;;;;;4001747;29;20049;-67
2022/03/24 06:51:26;;;;;;;41.28;29.33;;;15.90;61.60;;;;;;4001919;29;20062;-67
2022/03/24 06:53:48;;;;;;;46.00;31.95;;;15.90;62.60;;;;;;3999409;29;20078;-68
2022/03/24 06:56:11;;;;;;;44.10;32.33;;;15.90;61.70;;;;;;4002095;29;20481;-66
2022/03/24 06:58:33;;;;;;;47.53;31.98;;;15.90;61.60;;;;;;4002105;29;20807;-66
2022/03/24 07:00:55;;;;;;;44.10;30.83;;;15.90;61.60;;;;;;4002160;29;20497;-66
2022/03/24 07:03:17;;;;;;;44.47;32.58;;;15.90;61.60;;;;;;4001453;29;20058;-66
2022/03/24 07:05:39;;;;;;;44.78;32.20;;;15.80;61.70;;;;;;4001918;29;20454;-67
2022/03/24 07:08:04;;;;;;;47.95;33.75;;;15.80;62.00;;;;;;4000041;29;20518;-67
2022/03/24 07:10:26;;;;;;;55.28;36.58;;;15.80;62.10;;;;;;3986966;29;20069;-66
2022/03/24 07:12:49;;;;;;;48.33;35.60;;;15.80;62.20;;;;;;3986883;29;20417;-67
2022/03/24 07:15:11;;;;;;;55.75;38.53;;;15.80;62.20;;;;;;3998911;29;20057;-66
2022/03/24 07:17:34;;;;;;;54.28;37.00;;;15.80;62.30;;;;;;3971277;29;20058;-66
2022/03/24 07:19:56;;;;;;;60.80;39.45;;;15.80;62.40;;;;;;3985668;29;20061;-66
2022/03/24 07:22:18;;;;;;;56.80;39.85;;;15.80;62.50;;;;;;4001518;29;20068;-66
2022/03/24 07:24:42;;;;;;;64.68;40.53;;;15.80;62.40;;;;;;4001465;29;20404;-66
2022/03/24 07:27:05;;;;;;;66.43;40.13;;;15.90;62.50;;;;;;3990207;29;20594;-66
2022/03/24 07:29:27;;;;;;;62.75;41.10;;;15.90;62.40;;;;;;4001394;29;20524;-65
2022/03/24 07:31:50;;;;;;;63.17;41.55;;;15.90;61.80;;;;;;3995955;29;20093;-66
2022/03/24 07:34:13;;;;;;;61.03;40.03;;;15.90;61.80;;;;;;4001711;29;20041;-66
2022/03/24 07:36:36;;;;;;;59.75;40.33;;;16.00;61.80;;;;;;4001119;29;20054;-64
2022/03/24 07:39:00;;;;;;;57.08;39.78;;;16.00;61.40;;;;;;4001021;29;20142;-65
2022/03/24 07:41:24;;;;;;;60.97;39.42;;;16.00;61.20;;;;;;3998566;29;20101;-65
2022/03/24 07:43:46;;;;;;;56.25;38.38;;;16.10;60.60;;;;;;4001405;29;20053;-65
2022/03/24 07:46:08;;;;;;;60.15;39.47;;;16.10;60.40;;;;;;3999982;29;20057;-65
2022/03/24 07:48:30;;;;;;;56.92;40.60;;;16.10;60.40;;;;;;4000905;29;20125;-65
2022/03/24 07:50:54;;;;;;;58.03;39.22;;;16.20;60.50;;;;;;4001480;29;20081;-65
2022/03/24 07:53:40;;;;;;;59.20;40.67;;;16.20;59.70;;;;;;4001139;29;20874;-65
2022/03/24 07:56:02;;;;;;;54.47;38.13;;;16.20;59.90;;;;;;4000649;29;20114;-65
2022/03/24 07:58:27;;;;;;;56.05;39.40;;;16.30;59.40;;;;;;3987092;29;20246;-65
2022/03/24 08:00:49;;;;;;;57.03;37.00;;;16.30;59.00;;;;;;4000416;29;20152;-65
2022/03/24 08:03:13;;;;;;;53.45;36.63;;;16.30;58.50;;;;;;4000274;29;20135;-68
2022/03/24 08:05:36;;;;;;;52.35;35.38;;;16.30;58.70;;;;;;4001170;29;20057;-65
2022/03/24 08:07:58;;;;;;;51.97;35.03;;;16.40;59.30;;;;;;3999560;29;20057;-64
2022/03/24 08:10:20;;;;;;;49.08;34.53;;;16.40;59.60;;;;;;4001304;29;20058;-64
2022/03/24 08:12:42;;;;;;;54.20;36.00;;;16.40;59.90;;;;;;3999804;29;20106;-65
2022/03/24 08:15:06;;;;;;;50.85;36.25;;;16.40;60.00;;;;;;3986447;29;20138;-64
2022/03/24 08:17:29;;;;;;;53.67;34.92;;;16.50;59.90;;;;;;4001325;29;20110;-64
2022/03/24 08:19:50;;;;;;;58.17;36.10;;;16.50;59.90;;;;;;4001296;29;20050;-65
2022/03/24 08:22:12;;;;;;;54.65;35.92;;;16.50;59.80;;;;;;3999902;29;20065;-65
2022/03/24 08:24:34;;;;;;;56.42;34.95;;;16.50;59.80;;;;;;4000641;29;20180;-65
2022/03/24 08:26:56;;;;;;;55.13;38.20;;;16.60;59.90;;;;;;4000844;29;20065;-65
2022/03/24 08:29:18;;;;;;;50.45;30.70;;;16.70;59.90;;;;;;3985279;29;20095;-65
2022/03/24 08:31:42;;;;;;;48.35;29.73;;;16.70;59.50;;;;;;3985747;29;20137;-64
2022/03/24 08:34:05;;;;;;;49.13;32.28;;;16.70;57.70;;;;;;3997658;29;20116;-65
2022/03/24 08:36:27;;;;;;;50.53;33.75;;;16.70;56.40;;;;;;4000046;29;20527;-65
2022/03/24 08:38:50;;;;;;;56.67;33.42;;;16.80;55.80;;;;;;4000507;29;20042;-64
2022/03/24 08:41:12;;;;;;;52.05;34.90;;;16.80;56.80;;;;;;4000667;29;20058;-65
2022/03/24 08:43:34;;;;;;;56.25;34.13;;;16.80;56.50;;;;;;4000126;29;20058;-65
2022/03/24 08:45:59;;;;;;;48.05;33.13;;;16.80;55.80;;;;;;3999845;29;20060;-65
2022/03/24 08:48:23;;;;;;;57.50;34.10;;;16.80;55.40;;;;;;4000683;29;20060;-64
2022/03/24 08:50:45;;;;;;;54.00;36.15;;;16.80;54.90;;;;;;4000839;29;20052;-65
2022/03/24 08:53:07;;;;;;;51.53;36.83;;;16.80;54.80;;;;;;4000341;29;20114;-65
2022/03/24 08:55:29;;;;;;;52.67;35.70;;;16.80;55.10;;;;;;4000596;29;20121;-65
2022/03/24 08:57:51;;;;;;;53.72;35.75;;;16.80;56.40;;;;;;4001139;29;20065;-65
2022/03/24 09:00:15;;;;;;;48.47;32.35;;;16.80;56.90;;;;;;4000980;29;20114;-65
2022/03/24 09:02:37;;;;;;;49.05;31.40;;;16.80;55.70;;;;;;4001106;29;20049;-65
2022/03/24 09:05:01;;;;;;;41.88;26.17;;;16.80;54.80;;;;;;4000601;29;20429;-64
2022/03/24 09:07:29;;;;;;;48.97;31.10;;;16.80;54.50;;;;;;4000940;29;20366;-64
2022/03/24 09:09:51;;;;;;;47.53;33.65;;;16.90;54.50;;;;;;4000660;29;20132;-64
2022/03/24 09:12:14;;;;;;;49.85;31.95;;;16.90;55.30;;;;;;4001009;29;20110;-64
2022/03/24 09:14:36;;;;;;;50.60;33.78;;;16.90;56.20;;;;;;4000221;29;20516;-64
2022/03/24 09:16:59;;;;;;;46.65;33.53;;;16.90;56.90;;;;;;4003074;29;20046;-64
2022/03/24 09:19:21;;;;;;;49.63;34.45;;;16.90;56.80;;;;;;4002877;29;20058;-64
2022/03/24 09:21:44;;;;;;;52.85;34.60;;;16.90;56.50;;;;;;3989168;29;20058;-64
2022/03/24 09:24:06;;;;;;;52.05;33.90;;;17.00;56.20;;;;;;4003266;29;20394;-63
2022/03/24 09:26:28;;;;;;;51.53;32.50;;;17.00;56.30;;;;;;4003616;29;20046;-63
2022/03/24 09:28:52;;;;;;;51.25;33.90;;;17.00;56.70;;;;;;4002821;29;20057;-64
2022/03/24 09:31:14;;;;;;;50.53;34.05;;;17.10;56.50;;;;;;4003133;29;20398;-64
2022/03/24 09:33:37;;;;;;;56.97;34.00;;;17.10;56.50;;;;;;3989552;29;20091;-63
2022/03/24 09:35:59;;;;;;;52.78;33.80;;;17.10;56.50;;;;;;3989304;29;20061;-64
2022/03/24 09:38:22;;;;;;;53.20;35.13;;;17.10;56.00;;;;;;4002935;29;20056;-64
2022/03/24 09:40:45;;;;;;;51.42;35.22;;;17.10;55.90;;;;;;4003646;29;20054;-64
2022/03/24 09:43:09;;;;;;;51.45;33.85;;;17.10;56.50;;;;;;4003106;29;20070;-64
2022/03/24 09:45:31;;;;;;;48.90;33.67;;;17.20;55.70;;;;;;4002897;29;20054;-64
2022/03/24 09:47:53;;;;;;;53.35;33.88;;;17.20;56.60;;;;;;4001435;29;20497;-64
2022/03/24 09:50:16;;;;;;;49.83;32.53;;;17.20;56.80;;;;;;3988989;29;20174;-64
2022/03/24 09:52:39;;;;;;;52.75;32.85;;;17.20;56.20;;;;;;3998336;29;20229;-63
2022/03/24 09:55:02;;;;;;;52.70;33.70;;;17.20;56.10;;;;;;4002771;29;20054;-64
2022/03/24 09:57:25;;;;;;;52.10;32.65;;;17.20;55.40;;;;;;3992331;29;20429;-64
2022/03/24 09:59:47;;;;;;;53.15;31.63;;;17.30;55.50;;;;;;4002944;29;20061;-64
2022/03/24 10:02:10;;;;;;;48.53;33.17;;;17.20;56.20;;;;;;4002201;29;20054;-64
2022/03/24 10:04:45;;;;;;;56.10;34.95;;;17.30;55.30;;;;;;4000275;29;20077;-65
2022/03/24 10:07:10;;;;;;;54.97;35.80;;;17.30;55.00;;;;;;4001720;29;20458;-64
2022/03/24 10:09:36;;;;;;;53.08;34.78;;;17.30;55.00;;;;;;4002637;29;20071;-64
2022/03/24 10:11:59;;;;;;;55.25;35.42;;;17.30;55.70;;;;;;4002590;29;20053;-64
2022/03/24 10:14:23;;;;;;;48.35;35.10;;;17.30;55.20;;;;;;4014616;29;20057;-65
2022/03/24 10:16:45;;;;;;;57.75;35.90;;;17.30;54.50;;;;;;4016110;29;20522;-64
2022/03/24 10:19:10;;;;;;;54.17;36.25;;;17.40;55.20;;;;;;4006935;29;20179;-63
2022/03/24 10:21:34;;;;;;;54.05;37.45;;;17.40;55.10;;;;;;4002438;29;20054;-64
2022/03/24 10:23:57;;;;;;;56.35;36.22;;;17.40;54.50;;;;;;4001772;29;20153;-64
2022/03/24 10:26:19;;;;;;;53.55;37.30;;;17.40;55.30;;;;;;4001237;29;20148;-64
2022/03/24 10:28:58;;;;;;;58.78;36.50;;;17.40;55.50;;;;;;3992510;29;20409;-65
2022/03/24 10:31:20;;;;;;;58.97;35.92;;;17.50;55.50;;;;;;4002091;29;20054;-64
2022/03/24 10:33:45;;;;;;;52.90;35.75;;;17.50;54.80;;;;;;4011010;29;20060;-64
2022/03/24 10:36:10;;;;;;;54.15;36.22;;;17.50;54.10;;;;;;3998705;29;20081;-64
2022/03/24 10:38:32;;;;;;;58.53;35.45;;;17.50;54.00;;;;;;4002711;29;20574;-64
2022/03/24 10:40:54;;;;;;;57.72;34.22;;;17.50;54.40;;;;;;4002594;29;20045;-65
2022/03/24 10:43:23;;;;;;;55.40;34.65;;;17.60;54.20;;;;;;4002177;29;20070;-64
2022/03/24 10:45:46;;;;;;;55.60;38.03;;;17.60;55.80;;;;;;4002157;29;20634;-65
2022/03/24 10:48:09;;;;;;;59.25;35.08;;;17.60;54.50;;;;;;3996265;29;20050;-65
2022/03/24 10:50:37;;;;;;;55.85;36.08;;;17.70;54.70;;;;;;4002416;29;20054;-65
2022/03/24 10:53:02;;;;;;;58.00;36.50;;;17.60;55.30;;;;;;4001830;29;20065;-65
2022/03/24 10:55:34;;;;;;;58.72;37.08;;;17.70;55.00;;;;;;3987690;29;20054;-65
2022/03/24 10:57:58;;;;;;;54.65;34.42;;;17.70;53.80;;;;;;3999376;29;20050;-64
2022/03/24 11:00:20;;;;;;;56.42;35.05;;;17.70;53.70;;;;;;4002075;29;20136;-65
2022/03/24 11:02:45;;;;;;;62.63;37.05;;;17.70;54.30;;;;;;4000720;29;20057;-65
2022/03/24 11:05:12;;;;;;;62.13;40.30;;;17.80;54.00;;;;;;4001064;29;20057;-64
2022/03/24 11:07:34;;;;;;;59.88;37.63;;;17.80;53.80;;;;;;3986724;29;20070;-65
2022/03/24 11:09:57;;;;;;;59.95;38.10;;;17.80;54.20;;;;;;3998215;29;20053;-64
2022/03/24 11:12:28;;;;;;;59.40;36.97;;;17.80;54.50;;;;;;4000640;29;20050;-65
2022/03/24 11:14:51;;;;;;;64.53;39.15;;;17.80;55.70;;;;;;4001447;29;20061;-65
2022/03/24 11:17:14;;;;;;;60.67;37.15;;;17.90;56.00;;;;;;4000549;29;20444;-66
2022/03/24 11:19:40;;;;;;;57.33;38.83;;;17.90;55.10;;;;;;3994809;29;20077;-65
2022/03/24 11:22:03;;;;;;;63.35;38.60;;;17.90;54.50;;;;;;4000634;29;20068;-65
2022/03/24 11:24:25;;;;;;;57.55;35.20;;;17.90;53.90;;;;;;4000846;29;20054;-65
2022/03/24 11:26:48;;;;;;;61.03;37.58;;;18.00;53.90;;;;;;4000668;29;20060;-66
2022/03/24 11:29:11;;;;;;;63.30;38.78;;;18.00;53.90;;;;;;4001214;29;20099;-65
2022/03/24 11:31:33;;;;;;;57.95;36.70;;;18.00;53.70;;;;;;4001415;29;20494;-65
2022/03/24 11:33:56;;;;;;;57.50;39.67;;;18.00;54.50;;;;;;3986272;29;20071;-65
2022/03/24 11:36:21;;;;;;;58.38;38.22;;;18.10;54.10;;;;;;4000999;29;20062;-65
2022/03/24 11:38:47;;;;;;;60.28;38.55;;;18.10;52.60;;;;;;4001419;29;20070;-65
2022/03/24 11:41:17;;;;;;;59.28;38.05;;;18.10;52.60;;;;;;4001198;29;20062;-65
2022/03/24 11:43:45;;;;;;;62.50;38.85;;;18.10;53.30;;;;;;4001007;29;20129;-64
2022/03/24 11:46:11;;;;;;;60.97;39.53;;;18.10;53.40;;;;;;3988405;29;20962;-64
2022/03/24 11:48:36;;;;;;;59.65;38.13;;;18.20;53.10;;;;;;3999847;29;20106;-65
2022/03/24 11:50:58;;;;;;;56.33;35.97;;;18.20;53.50;;;;;;4001435;29;20057;-65
2022/03/24 11:53:36;;;;;;;56.47;36.55;;;18.20;53.70;;;;;;4001727;29;20070;-65
2022/03/24 11:56:11;;;;;;;53.50;34.22;;;18.20;53.90;;;;;;3972031;29;20046;-65
2022/03/24 11:58:36;;;;;;;57.38;35.35;;;18.20;53.50;;;;;;4001042;29;20085;-65
2022/03/24 12:01:18;;;;;;;53.05;34.17;;;18.20;53.90;;;;;;4001026;29;20060;-64
2022/03/24 12:03:43;;;;;;;55.30;36.80;;;18.20;52.50;;;;;;3981116;29;20055;-64
2022/03/24 12:06:06;;;;;;;57.80;35.88;;;18.30;52.80;;;;;;3983080;29;20065;-64
2022/03/24 12:08:29;;;;;;;59.25;37.45;;;18.30;52.60;;;;;;3987498;29;20054;-64